Overview Statistics Trail Chart Weather Telemetry Raw packets
 

This is the latest recevied weather packets stored in our database for station/object SV9FBP-13. If no packets are shown the sender has not sent any weather packets the latest 10 day(s).

<< 7 8 9 10 11 12 13 >>
Time Temp. Humidity Pressure Rain* Wind** Luminosity Snow
1788467016 29.44° C 26% 1007.3 hPa 0 mm - - -
1788466113 28.89° C 26% 1007.1 hPa 0 mm - - -
1788465212 26.67° C 50% 1007.3 hPa 0 mm - - -
1788464309 26.67° C 52% 1007.5 hPa 0 mm - - -
1788463407 26.67° C 53% 1007.7 hPa 0 mm - - -
1788462504 26.67° C 53% 1007.9 hPa 0 mm - - -
1788461603 26.67° C 53% 1008 hPa 0 mm - - -
1788460703 27.22° C 52% 1007.8 hPa 0 mm - - -
1788459798 27.22° C 51% 1007.7 hPa 0 mm - - -
1788458898 27.22° C 52% 1007.5 hPa 0 mm - - -
1788457994 27.22° C 52% 1007.4 hPa 0 mm - - -
1788457091 27.22° C 51% 1007.4 hPa 0 mm - - -
1788456190 27.22° C 52% 1007.3 hPa 0 mm - - -
1788455288 27.78° C 49% 1007.2 hPa 0 mm - - -
1788454386 27.78° C 48% 1007.1 hPa 0 mm - - -
1788453483 27.78° C 49% 1007 hPa 0 mm - - -
1788452581 28.89° C 46% 1007 hPa 0 mm - - -
1788451679 29.44° C 42% 1006.9 hPa 0 mm - - -
1788450776 30° C 40% 1006.9 hPa 0 mm - - -
1788449874 30.56° C 40% 1006.7 hPa 0 mm - - -
1788448972 30.56° C 38% 1006.8 hPa 0 mm - - -
1788448070 31.11° C 39% 1006.7 hPa 0 mm - - -
1788447168 31.11° C 37% 1006.7 hPa 0 mm - - -
1788446266 32.22° C 36% 1006.7 hPa 0 mm - - -
1788445364 32.22° C 32% 1006.7 hPa 0 mm - - -

* Rain latest hour (hover to see other rain measurements)
** Current wind speed in m/s (hover to see current wind gust speed)